createdAt,value
2024-04-18T00:01:19.367Z,99821.79
2024-04-18T00:04:06.316Z,99829.89
2024-04-18T00:06:38.077Z,99827.75
2024-04-18T00:09:09.602Z,99825.77
2024-04-18T00:11:42.431Z,99820.14
2024-04-18T00:14:13.942Z,99821.65
2024-04-18T00:16:45.218Z,99821.73
2024-04-18T00:19:17.691Z,99821.17
2024-04-18T00:21:49.293Z,99822.66
2024-04-18T00:24:20.980Z,99824.72
2024-04-18T00:26:52.467Z,99825.50
2024-04-18T00:29:24.170Z,99827.58
2024-04-18T00:31:55.381Z,99827.45
2024-04-18T00:34:26.876Z,99829.83
2024-04-18T00:36:58.279Z,99831.69
2024-04-18T00:39:30.181Z,99831.62
2024-04-18T00:42:01.732Z,99833.73
2024-04-18T00:44:33.501Z,99831.85
2024-04-18T00:47:05.075Z,99832.02
2024-04-18T00:49:39.612Z,99831.48
2024-04-18T00:52:12.201Z,99834.25
2024-04-18T00:54:43.649Z,99832.74
2024-04-18T00:57:15.548Z,99834.97
2024-04-18T00:59:47.529Z,99834.63
2024-04-18T01:02:18.947Z,99837.17
2024-04-18T01:04:51.004Z,99836.88
2024-04-18T01:07:22.440Z,99840.50
2024-04-18T01:09:53.987Z,99843.29
2024-04-18T01:12:25.726Z,99843.88
2024-04-18T01:14:57.161Z,99841.90
2024-04-18T01:17:28.527Z,99842.07
2024-04-18T01:20:00.139Z,99842.19
2024-04-18T01:22:31.672Z,99839.02
2024-04-18T01:25:03.081Z,99839.38
2024-04-18T01:27:34.378Z,99841.27
2024-04-18T01:30:06.641Z,99840.98
2024-04-18T01:32:38.527Z,99840.02
2024-04-18T01:35:12.054Z,99836.67
2024-04-18T01:37:43.554Z,99838.84
2024-04-18T01:40:14.915Z,99837.16
2024-04-18T01:42:46.430Z,99842.13
2024-04-18T01:45:18.595Z,99843.17
2024-04-18T01:47:49.934Z,99844.66
2024-04-18T01:50:21.790Z,99843.83
2024-04-18T01:52:53.196Z,99848.10
2024-04-18T01:55:25.007Z,99849.19
2024-04-18T01:57:56.492Z,99850.25
2024-04-18T02:00:27.937Z,99850.91
2024-04-18T02:02:59.230Z,99854.06
2024-04-18T02:05:30.704Z,99852.14
2024-04-18T02:08:01.971Z,99859.73
2024-04-18T02:10:33.404Z,99859.17
2024-04-18T02:13:04.672Z,99859.01
2024-04-18T02:15:36.893Z,99864.70
2024-04-18T02:18:08.388Z,99860.55
2024-04-18T02:20:39.761Z,99858.03
2024-04-18T02:23:10.946Z,99861.59
2024-04-18T02:25:42.320Z,99863.65
2024-04-18T02:28:14.009Z,99861.23
2024-04-18T02:30:45.528Z,99863.48
2024-04-18T02:33:18.144Z,99860.41
2024-04-18T02:35:50.326Z,99859.57
2024-04-18T02:38:21.515Z,99862.63
2024-04-18T02:40:52.969Z,99856.52
2024-04-18T02:43:24.342Z,99858.67
2024-04-18T02:45:56.758Z,99861.73
2024-04-18T02:48:28.353Z,99859.89
2024-04-18T02:50:59.803Z,99862.66
2024-04-18T02:53:31.284Z,99860.05
2024-04-18T02:56:02.657Z,99859.46
2024-04-18T02:58:33.943Z,99856.33
2024-04-18T03:01:06.569Z,99859.11
2024-04-18T03:03:38.005Z,99860.02
2024-04-18T03:06:09.880Z,99859.68
2024-04-18T03:08:41.055Z,99858.45
2024-04-18T03:11:12.598Z,99862.95
2024-04-18T03:13:44.254Z,99861.81
2024-04-18T03:16:17.403Z,99864.15
2024-04-18T03:18:48.728Z,99865.89
2024-04-18T03:21:20.381Z,99869.90
2024-04-18T03:23:52.179Z,99865.17
2024-04-18T03:26:23.608Z,99866.11
2024-04-18T03:29:00.322Z,99865.02
2024-04-18T03:31:32.343Z,99864.70
2024-04-18T03:34:03.550Z,99864.11
2024-04-18T03:36:35.698Z,99866.38
2024-04-18T03:39:06.983Z,99866.01
2024-04-18T03:41:39.900Z,99868.88
2024-04-18T03:44:11.552Z,99867.19
2024-04-18T03:46:43.247Z,99870.80
2024-04-18T03:49:14.558Z,99872.14
2024-04-18T03:51:46.164Z,99873.42
2024-04-18T03:54:17.493Z,99879.79
2024-04-18T03:56:48.918Z,99879.48
2024-04-18T03:59:20.223Z,99885.61
2024-04-18T04:01:51.600Z,99886.91
2024-04-18T04:04:23.063Z,99888.80
2024-04-18T04:06:54.532Z,99886.58
2024-04-18T04:09:25.937Z,99889.59
2024-04-18T04:11:57.278Z,99891.89
2024-04-18T04:14:28.514Z,99894.98
2024-04-18T04:16:59.843Z,99898.04
2024-04-18T04:19:31.208Z,99894.77
2024-04-18T04:22:03.360Z,99895.33
2024-04-18T04:24:34.734Z,99901.11
2024-04-18T04:27:06.447Z,99900.67
2024-04-18T04:29:38.192Z,99898.86
2024-04-18T04:32:22.233Z,99898.47
2024-04-18T04:34:53.917Z,99899.30
2024-04-18T04:37:25.352Z,99899.24
2024-04-18T04:39:57.473Z,99899.63
2024-04-18T04:42:29.028Z,99901.75
2024-04-18T04:45:00.359Z,99902.72
2024-04-18T04:47:33.843Z,99903.59
2024-04-18T04:50:06.863Z,99903.77
2024-04-18T04:52:40.824Z,99902.96
2024-04-18T04:55:12.109Z,99904.39
2024-04-18T04:57:43.596Z,99899.40
2024-04-18T05:00:17.442Z,99905.37
2024-04-18T05:02:50.008Z,99905.91
2024-04-18T05:05:21.527Z,99907.14
2024-04-18T05:07:55.639Z,99903.11
2024-04-18T05:10:27.126Z,99903.74
2024-04-18T05:13:02.141Z,99904.23
2024-04-18T05:15:33.514Z,99908.32
2024-04-18T05:18:05.350Z,99902.19
2024-04-18T05:20:37.600Z,99905.46
2024-04-18T05:23:09.604Z,99904.10
2024-04-18T05:25:41.119Z,99907.69
2024-04-18T05:28:14.772Z,99904.39
2024-04-18T05:31:06.193Z,99911.70
2024-04-18T05:33:38.368Z,99909.38
2024-04-18T05:36:10.838Z,99911.83
2024-04-18T05:38:42.061Z,99909.90
2024-04-18T05:41:13.311Z,99909.88
2024-04-18T05:43:44.683Z,99913.33
2024-04-18T05:46:16.292Z,99917.48
2024-04-18T05:48:47.956Z,99917.56
2024-04-18T05:51:19.333Z,99913.66
2024-04-18T05:53:50.528Z,99917.40
2024-04-18T05:56:22.020Z,99916.14
2024-04-18T05:58:53.271Z,99918.86
2024-04-18T06:01:24.962Z,99926.84
2024-04-18T06:03:56.557Z,99929.42
2024-04-18T06:06:28.457Z,99929.37
2024-04-18T06:08:59.857Z,99931.88
2024-04-18T06:11:36.763Z,99935.23
2024-04-18T06:14:08.345Z,99935.17
2024-04-18T06:16:39.880Z,99935.17
2024-04-18T06:19:12.173Z,99936.84
2024-04-18T06:21:43.427Z,99937.43
2024-04-18T06:24:14.727Z,99936.69
2024-04-18T06:26:45.928Z,99940.94
2024-04-18T06:29:17.246Z,99943.27
2024-04-18T06:31:48.562Z,99937.15
2024-04-18T06:34:20.077Z,99941.76
2024-04-18T06:36:51.423Z,99946.90
2024-04-18T06:39:23.100Z,99948.53
2024-04-18T06:41:54.723Z,99948.42
2024-04-18T06:44:26.279Z,99950.23
2024-04-18T06:47:02.123Z,99953.71
2024-04-18T06:49:34.415Z,99954.73
2024-04-18T06:52:06.188Z,99959.54
2024-04-18T06:54:37.753Z,99960.23
2024-04-18T06:57:09.320Z,99967.48
2024-04-18T06:59:40.611Z,99964.44
2024-04-18T07:02:12.060Z,99970.30
2024-04-18T07:04:46.063Z,99969.41
2024-04-18T07:07:17.840Z,99974.91
2024-04-18T07:09:49.912Z,99977.67
2024-04-18T07:12:21.448Z,99974.60
2024-04-18T07:14:52.851Z,99971.30
2024-04-18T07:17:24.272Z,99975.76
2024-04-18T07:19:55.729Z,99979.68
2024-04-18T07:22:27.886Z,99982.88
2024-04-18T07:24:59.402Z,99987.25
2024-04-18T07:27:30.699Z,99988.23
2024-04-18T07:30:02.230Z,99991.83
2024-04-18T07:32:33.849Z,99991.38
2024-04-18T07:35:06.204Z,99990.11
2024-04-18T07:37:38.060Z,99989.06
2024-04-18T07:40:13.798Z,99990.21
2024-04-18T07:42:46.561Z,99987.19
2024-04-18T07:45:18.537Z,99987.86
2024-04-18T07:47:50.056Z,99990.43
2024-04-18T07:50:21.662Z,99989.49
2024-04-18T07:53:00.616Z,99987.80
2024-04-18T07:55:39.185Z,99983.69
2024-04-18T07:58:11.591Z,99985.63
2024-04-18T08:00:44.290Z,99982.89
2024-04-18T08:03:18.402Z,99979.90
2024-04-18T08:05:53.170Z,99982.55
2024-04-18T08:08:28.963Z,99985.58
2024-04-18T08:11:25.716Z,99985.70
2024-04-18T08:13:57.433Z,99987.52
2024-04-18T08:16:31.540Z,99986.39
2024-04-18T08:19:02.943Z,99987.15
2024-04-18T08:21:34.335Z,99988.66
2024-04-18T08:24:06.237Z,99991.64
2024-04-18T08:26:37.532Z,99991.52
2024-04-18T08:29:08.827Z,99988.76
2024-04-18T08:31:40.655Z,99990.61
2024-04-18T08:34:17.952Z,99986.75
2024-04-18T08:36:50.269Z,99988.77
2024-04-18T08:39:22.019Z,99990.50
2024-04-18T08:41:54.792Z,99989.30
2024-04-18T08:44:26.142Z,99985.78
2024-04-18T08:46:59.271Z,99985.14
2024-04-18T08:49:31.244Z,99984.77
2024-04-18T08:52:02.972Z,99987.83
2024-04-18T08:54:34.786Z,99987.27
2024-04-18T08:57:08.394Z,99986.67
2024-04-18T08:59:39.921Z,99992.27
2024-04-18T09:02:12.061Z,99995.20
2024-04-18T09:04:43.752Z,99997.21
2024-04-18T09:07:15.098Z,99990.44
2024-04-18T09:09:48.099Z,99987.75
2024-04-18T09:12:19.989Z,99984.27
2024-04-18T09:14:51.292Z,99983.40
2024-04-18T09:17:23.123Z,99983.35
2024-04-18T09:19:54.441Z,99987.01
2024-04-18T09:22:25.796Z,99989.14
2024-04-18T09:24:57.128Z,99984.89
2024-04-18T09:27:29.084Z,99987.63
2024-04-18T09:30:00.670Z,99984.10
2024-04-18T09:32:32.507Z,99983.66
2024-04-18T09:35:04.754Z,99983.12
2024-04-18T09:37:36.516Z,99986.14
2024-04-18T09:40:12.309Z,99980.22
2024-04-18T09:42:48.137Z,99977.32
2024-04-18T09:45:22.240Z,99973.77
2024-04-18T09:47:54.478Z,99970.91
2024-04-18T09:50:26.070Z,99969.75
2024-04-18T09:52:57.839Z,99962.73
2024-04-18T09:55:30.695Z,99962.52
2024-04-18T09:58:02.910Z,99965.45
2024-04-18T10:00:34.591Z,99962.64
2024-04-18T10:03:07.503Z,99960.97
2024-04-18T10:05:40.811Z,99955.36
2024-04-18T10:08:12.376Z,99951.92
2024-04-18T10:10:45.700Z,99954.10
2024-04-18T10:13:18.022Z,99950.58
2024-04-18T10:15:50.071Z,99950.73
2024-04-18T10:18:21.800Z,99954.10
2024-04-18T10:20:56.582Z,99954.35
2024-04-18T10:23:30.224Z,99955.92
2024-04-18T10:26:01.794Z,99957.29
2024-04-18T10:28:36.319Z,99958.96
2024-04-18T10:31:09.468Z,99967.91
2024-04-18T10:33:41.898Z,99982.74
2024-04-18T10:36:16.091Z,99984.13
2024-04-18T10:38:48.651Z,99985.05
2024-04-18T10:41:23.558Z,99983.55
2024-04-18T10:43:56.049Z,99984.02
2024-04-18T10:46:27.597Z,99982.29
2024-04-18T10:48:59.209Z,99982.52
2024-04-18T10:51:30.804Z,99978.50
2024-04-18T10:54:02.369Z,99980.83
2024-04-18T10:56:34.115Z,99983.16
2024-04-18T10:59:05.624Z,99982.02
2024-04-18T11:01:40.454Z,99978.90
2024-04-18T11:04:12.660Z,99969.02
2024-04-18T11:06:45.238Z,99963.76
2024-04-18T11:09:17.561Z,99970.07
2024-04-18T11:11:48.955Z,99972.04
2024-04-18T11:14:22.635Z,99971.33
2024-04-18T11:17:01.587Z,99969.60
2024-04-18T11:19:33.904Z,99969.69
2024-04-18T11:22:05.302Z,99967.68
2024-04-18T11:24:37.212Z,99971.74
2024-04-18T11:27:09.101Z,99966.70
2024-04-18T11:29:42.125Z,99964.96
2024-04-18T11:32:14.289Z,99958.57
2024-04-18T11:34:50.201Z,99955.52
2024-04-18T11:37:23.629Z,99956.98
2024-04-18T11:39:57.948Z,99958.47
2024-04-18T11:42:27.850Z,99961.05
2024-04-18T11:44:59.120Z,99962.77
2024-04-18T11:47:30.547Z,99961.27
2024-04-18T11:50:01.862Z,99958.98
2024-04-18T11:52:33.144Z,99966.42
2024-04-18T11:55:04.570Z,99976.78
2024-04-18T11:57:36.217Z,99980.58
2024-04-18T12:00:09.419Z,99983.48
2024-04-18T12:02:40.692Z,99987.70
2024-04-18T12:05:11.900Z,99990.73
2024-04-18T12:07:43.243Z,99987.49
2024-04-18T12:10:14.610Z,99988.38
2024-04-18T12:12:46.058Z,99978.35
2024-04-18T12:15:20.178Z,99977.63
2024-04-18T12:17:51.538Z,99968.80
2024-04-18T12:20:23.746Z,99968.06
2024-04-18T12:22:55.100Z,99962.70
2024-04-18T12:25:26.452Z,99957.70
2024-04-18T12:27:57.634Z,99954.79
2024-04-18T12:30:30.537Z,99956.15
2024-04-18T12:33:02.293Z,99953.09
2024-04-18T12:35:33.928Z,99957.27
2024-04-18T12:38:05.351Z,99967.98
2024-04-18T12:40:36.748Z,99976.04
2024-04-18T12:43:08.200Z,99978.80
2024-04-18T12:45:39.901Z,99983.73
2024-04-18T12:48:11.786Z,99980.84
2024-04-18T12:50:43.557Z,99985.61
2024-04-18T12:53:14.905Z,99982.41
2024-04-18T12:55:46.507Z,99984.41
2024-04-18T12:58:17.814Z,99980.78
2024-04-18T13:00:49.221Z,99978.23
2024-04-18T13:03:20.642Z,99979.21
2024-04-18T13:05:52.469Z,99977.71
2024-04-18T13:08:23.770Z,99973.23
2024-04-18T13:10:55.838Z,99970.84
2024-04-18T13:13:27.101Z,99965.27
2024-04-18T13:16:02.723Z,99969.27
2024-04-18T13:18:34.682Z,99969.41
2024-04-18T13:21:06.677Z,99966.98
2024-04-18T13:23:37.881Z,99966.30
2024-04-18T13:26:09.249Z,99965.23
2024-04-18T13:28:40.867Z,99967.17
2024-04-18T13:31:14.148Z,99970.92
2024-04-18T13:33:52.035Z,99971.00
2024-04-18T13:36:24.048Z,99970.23
2024-04-18T13:38:55.637Z,99968.80
2024-04-18T13:41:29.060Z,99973.20
2024-04-18T13:44:00.300Z,99972.30
2024-04-18T13:46:31.822Z,99970.00
2024-04-18T13:49:03.211Z,99966.65
2024-04-18T13:51:34.626Z,99977.54
2024-04-18T13:54:06.572Z,99975.95
2024-04-18T13:56:38.062Z,99980.48
2024-04-18T13:59:10.405Z,99983.48
2024-04-18T14:01:41.860Z,99983.80
2024-04-18T14:04:13.258Z,99981.21
2024-04-18T14:06:44.861Z,99984.10
2024-04-18T14:09:16.544Z,99985.91
2024-04-18T14:11:47.874Z,99984.77
2024-04-18T14:14:21.587Z,99980.36
2024-04-18T14:17:10.540Z,99988.94
2024-04-18T14:19:41.790Z,99985.94
2024-04-18T14:22:13.166Z,99988.48
2024-04-18T14:24:44.753Z,99983.55
2024-04-18T14:27:16.402Z,99990.10
2024-04-18T14:29:47.723Z,99991.79
2024-04-18T14:32:19.116Z,99991.33
2024-04-18T14:34:50.476Z,99989.59
2024-04-18T14:37:21.903Z,99993.70
2024-04-18T14:39:53.196Z,99997.06
2024-04-18T14:42:24.509Z,99995.33
2024-04-18T14:44:55.786Z,99992.77
2024-04-18T14:47:29.632Z,99998.59
2024-04-18T14:50:03.599Z,100004.26
2024-04-18T14:52:36.441Z,100006.91
2024-04-18T14:55:08.272Z,100011.05
2024-04-18T14:57:39.630Z,100008.55
2024-04-18T15:00:13.513Z,100010.67
2024-04-18T15:02:45.029Z,100004.27
2024-04-18T15:05:16.979Z,100008.52
2024-04-18T15:07:50.579Z,100012.86
2024-04-18T15:10:23.285Z,100013.00
2024-04-18T15:12:54.649Z,100018.35
2024-04-18T15:15:25.945Z,100018.44
2024-04-18T15:17:58.372Z,100024.02
2024-04-18T15:20:29.647Z,100024.42
2024-04-18T15:23:01.085Z,100027.44
2024-04-18T15:25:33.086Z,100033.61
2024-04-18T15:28:04.826Z,100040.66
2024-04-18T15:30:36.059Z,100037.95
2024-04-18T15:33:08.240Z,100044.02
2024-04-18T15:35:40.044Z,100044.40
2024-04-18T15:38:11.747Z,100041.30
2024-04-18T15:40:43.351Z,100042.84
2024-04-18T15:43:14.616Z,100043.02
2024-04-18T15:45:45.925Z,100040.72
2024-04-18T15:48:17.800Z,100042.89
2024-04-18T15:50:49.228Z,100039.27
2024-04-18T15:53:20.628Z,100041.46
2024-04-18T15:55:52.250Z,100046.66
2024-04-18T15:58:23.900Z,100044.29
2024-04-18T16:00:55.236Z,100041.08
2024-04-18T16:03:26.995Z,100046.38
2024-04-18T16:05:59.148Z,100045.06
2024-04-18T16:08:30.449Z,100048.71
2024-04-18T16:11:01.941Z,100049.81
2024-04-18T16:13:33.369Z,100055.17
2024-04-18T16:16:05.508Z,100056.76
2024-04-18T16:18:38.782Z,100058.64
2024-04-18T16:21:10.291Z,100060.48
2024-04-18T16:23:41.683Z,100060.64
2024-04-18T16:26:12.943Z,100062.76
2024-04-18T16:28:46.138Z,100060.23
2024-04-18T16:31:17.429Z,100065.27
2024-04-18T16:33:48.678Z,100067.75
2024-04-18T16:36:31.535Z,100066.31
2024-04-18T16:39:10.837Z,100069.83
2024-04-18T16:41:43.791Z,100072.05
2024-04-18T16:44:15.082Z,100074.81
2024-04-18T16:46:46.306Z,100075.06
2024-04-18T16:49:17.640Z,100074.57
2024-04-18T16:51:49.570Z,100074.95
2024-04-18T16:54:20.915Z,100075.05
2024-04-18T16:56:52.175Z,100081.25
2024-04-18T16:59:23.924Z,100079.49
2024-04-18T17:01:55.159Z,100082.40
2024-04-18T17:04:27.031Z,100088.39
2024-04-18T17:06:58.486Z,100086.24
2024-04-18T17:09:30.465Z,100085.02
2024-04-18T17:12:02.231Z,100085.50
2024-04-18T17:14:33.712Z,100083.67
2024-04-18T17:17:05.149Z,100079.80
2024-04-18T17:19:36.980Z,100084.14
2024-04-18T17:22:08.559Z,100084.38
2024-04-18T17:24:40.083Z,100083.70
2024-04-18T17:27:11.427Z,100085.08
2024-04-18T17:29:42.838Z,100084.55
2024-04-18T17:32:14.083Z,100090.66
2024-04-18T17:34:45.579Z,100087.59
2024-04-18T17:37:16.864Z,100088.07
2024-04-18T17:39:51.806Z,100090.43
2024-04-18T17:42:23.998Z,100088.94
2024-04-18T17:44:55.565Z,100087.77
2024-04-18T17:47:27.073Z,100087.54
2024-04-18T17:49:58.653Z,100087.44
2024-04-18T17:52:29.930Z,100090.41
2024-04-18T17:55:01.635Z,100086.98
2024-04-18T17:57:33.128Z,100087.59
2024-04-18T18:00:04.648Z,100088.75
2024-04-18T18:02:35.989Z,100087.80
2024-04-18T18:05:08.126Z,100086.77
2024-04-18T18:07:39.798Z,100089.69
2024-04-18T18:10:11.323Z,100088.66
2024-04-18T18:12:42.583Z,100093.65
2024-04-18T18:15:15.894Z,100092.70
2024-04-18T18:17:47.351Z,100094.08
2024-04-18T18:20:19.030Z,100096.48
2024-04-18T18:22:50.343Z,100095.42
2024-04-18T18:25:21.615Z,100100.73
2024-04-18T18:27:52.833Z,100098.67
2024-04-18T18:30:25.970Z,100103.14
2024-04-18T18:32:57.440Z,100100.52
2024-04-18T18:35:30.835Z,100101.06
2024-04-18T18:38:02.214Z,100103.46
2024-04-18T18:40:35.940Z,100108.29
2024-04-18T18:43:06.348Z,100107.27
2024-04-18T18:45:37.787Z,100107.14
2024-04-18T18:48:10.415Z,100109.08
2024-04-18T18:50:45.365Z,100111.34
2024-04-18T18:53:16.678Z,100109.11
2024-04-18T18:55:48.253Z,100110.79
2024-04-18T18:58:19.971Z,100111.54
2024-04-18T19:00:51.340Z,100113.00
2024-04-18T19:03:22.636Z,100110.77
2024-04-18T19:05:54.015Z,100112.91
2024-04-18T19:08:25.389Z,100116.04
2024-04-18T19:10:56.803Z,100116.98
2024-04-18T19:13:28.116Z,100118.01
2024-04-18T19:16:00.090Z,100120.73
2024-04-18T19:18:31.521Z,100120.15
2024-04-18T19:21:03.219Z,100120.58
2024-04-18T19:23:41.196Z,100121.96
2024-04-18T19:26:12.721Z,100116.80
2024-04-18T19:28:44.538Z,100117.20
2024-04-18T19:31:15.921Z,100119.54
2024-04-18T19:33:47.392Z,100117.46
2024-04-18T19:36:20.435Z,100117.12
2024-04-18T19:38:52.862Z,100116.33
2024-04-18T19:41:24.391Z,100120.80
2024-04-18T19:43:56.851Z,100118.91
2024-04-18T19:46:28.228Z,100116.67
2024-04-18T19:49:00.803Z,100116.05
2024-04-18T19:51:33.420Z,100112.09
2024-04-18T19:54:04.811Z,100115.46
2024-04-18T19:56:36.291Z,100112.39
2024-04-18T19:59:07.613Z,100107.78
2024-04-18T20:01:41.490Z,100110.98
2024-04-18T20:04:12.764Z,100112.16
2024-04-18T20:06:44.171Z,100114.55
2024-04-18T20:09:15.550Z,100116.02
2024-04-18T20:11:47.152Z,100115.69
2024-04-18T20:14:18.556Z,100117.27
2024-04-18T20:16:52.994Z,100117.42
2024-04-18T20:19:27.103Z,100119.33
2024-04-18T20:21:58.646Z,100118.10
2024-04-18T20:24:30.026Z,100115.48
2024-04-18T20:27:01.485Z,100119.67
2024-04-18T20:29:33.719Z,100122.61
2024-04-18T20:32:05.627Z,100121.06
2024-04-18T20:34:36.829Z,100121.88
2024-04-18T20:37:08.250Z,100119.19
2024-04-18T20:39:40.105Z,100118.64
2024-04-18T20:42:12.142Z,100113.92
2024-04-18T20:44:43.452Z,100111.56
2024-04-18T20:47:14.646Z,100111.73
2024-04-18T20:49:46.218Z,100113.16
2024-04-18T20:52:17.467Z,100114.77
2024-04-18T20:54:48.828Z,100119.23
2024-04-18T20:57:24.291Z,100117.04
2024-04-18T20:59:57.353Z,100124.40
2024-04-18T21:02:28.762Z,100124.89
2024-04-18T21:05:00.184Z,100125.70
2024-04-18T21:07:32.020Z,100124.77
2024-04-18T21:10:03.377Z,100125.11
2024-04-18T21:12:34.733Z,100124.11
2024-04-18T21:15:06.960Z,100121.30
2024-04-18T21:17:38.496Z,100118.30
2024-04-18T21:20:10.844Z,100123.61
2024-04-18T21:22:42.159Z,100120.42
2024-04-18T21:25:13.428Z,100120.87
2024-04-18T21:27:44.842Z,100123.27
2024-04-18T21:30:16.397Z,100125.05
2024-04-18T21:32:48.157Z,100126.39
2024-04-18T21:35:20.113Z,100127.54
2024-04-18T21:37:51.538Z,100129.75
2024-04-18T21:40:22.763Z,100131.45
2024-04-18T21:42:56.078Z,100129.86
2024-04-18T21:45:27.415Z,100128.80
2024-04-18T21:47:58.985Z,100130.21
2024-04-18T21:50:30.950Z,100126.73
2024-04-18T21:53:03.132Z,100125.23
2024-04-18T21:55:34.463Z,100127.44
2024-04-18T21:58:06.055Z,100127.26
2024-04-18T22:00:38.112Z,100126.32
2024-04-18T22:03:09.725Z,100126.27
2024-04-18T22:05:41.078Z,100126.60
2024-04-18T22:08:12.856Z,100130.98
2024-04-18T22:10:44.143Z,100128.54
2024-04-18T22:13:15.673Z,100125.75
2024-04-18T22:15:47.024Z,100129.67
2024-04-18T22:18:18.577Z,100125.82
2024-04-18T22:20:50.345Z,100121.73
2024-04-18T22:23:21.746Z,100119.50
2024-04-18T22:25:52.984Z,100118.78
2024-04-18T22:28:24.683Z,100118.06
2024-04-18T22:31:00.225Z,100117.42
2024-04-18T22:33:32.309Z,100115.73
2024-04-18T22:36:03.826Z,100110.65
2024-04-18T22:38:35.649Z,100111.08
2024-04-18T22:41:08.782Z,100109.00
2024-04-18T22:43:40.362Z,100110.05
2024-04-18T22:46:11.581Z,100110.61
2024-04-18T22:48:43.776Z,100105.82
2024-04-18T22:51:15.323Z,100113.01
2024-04-18T22:53:46.904Z,100113.60
2024-04-18T22:56:20.465Z,100112.63
2024-04-18T22:58:51.728Z,100112.89
2024-04-18T23:01:23.197Z,100114.38
2024-04-18T23:03:54.895Z,100114.02
2024-04-18T23:06:26.649Z,100108.48
2024-04-18T23:08:58.115Z,100113.55
2024-04-18T23:11:29.785Z,100107.34
2024-04-18T23:14:01.456Z,100108.44
2024-04-18T23:16:32.735Z,100106.43
2024-04-18T23:19:04.167Z,100105.67
2024-04-18T23:21:35.532Z,100105.23
2024-04-18T23:24:07.618Z,100101.14
2024-04-18T23:26:40.657Z,100097.56
2024-04-18T23:29:11.936Z,100097.94
2024-04-18T23:31:43.475Z,100095.31
2024-04-18T23:34:14.797Z,100095.63
2024-04-18T23:36:46.111Z,100092.06
2024-04-18T23:39:17.783Z,100093.45
2024-04-18T23:41:49.204Z,100092.30
2024-04-18T23:44:20.732Z,100091.66
2024-04-18T23:46:52.021Z,100088.29
2024-04-18T23:49:23.479Z,100088.35
2024-04-18T23:51:54.748Z,100091.77
2024-04-18T23:54:26.279Z,100086.77
2024-04-18T23:56:58.010Z,100087.35
2024-04-18T23:59:30.556Z,100087.78
